createdAt,value
2019-06-26T05:52:43.016Z,99.900002
2019-06-26T05:57:43.777Z,99.900002
2019-06-26T06:02:53.706Z,99.900002
2019-06-26T06:07:48.366Z,99.900002
2019-06-26T06:12:50.659Z,99.900002
2019-06-26T06:17:52.915Z,99.900002
2019-06-26T06:22:55.148Z,99.900002
2019-06-26T06:27:57.599Z,99.900002
2019-06-26T06:32:59.910Z,99.900002
2019-06-26T06:38:02.123Z,99.900002
2019-06-26T06:43:04.521Z,99.900002
2019-06-26T06:48:07.722Z,99.900002
2019-06-26T06:53:08.973Z,99.900002
2019-06-26T06:58:11.227Z,99.900002
2019-06-26T07:03:13.521Z,99.900002
2019-06-26T07:08:17.841Z,99.900002
2019-06-26T07:13:18.143Z,99.900002
2019-06-26T07:18:21.581Z,99.900002
2019-06-26T07:23:22.688Z,99.900002
2019-06-26T07:28:25.004Z,99.900002
2019-06-26T10:12:24.998Z,99.900002
2019-06-26T10:17:27.197Z,99.900002
2019-06-26T10:22:29.508Z,99.900002
2019-06-26T10:27:31.943Z,99.900002
2019-06-26T11:07:38.352Z,77.599998
2019-06-26T11:12:41.745Z,70.5
2019-06-26T11:17:49.391Z,60
2019-06-26T11:22:45.193Z,60.900002
2019-06-26T11:28:23.511Z,64.199997
2019-06-26T11:32:56.214Z,59.099998
2019-06-26T11:37:57.117Z,50.299999
2019-06-26T11:43:01.727Z,56.599998
2019-06-26T11:48:01.594Z,51.599998
2019-06-26T12:06:56.135Z,57.900002
2019-06-26T12:20:20.837Z,50.200001
2019-06-26T12:25:22.201Z,51.299999
2019-06-26T12:30:26.576Z,48.599998
2019-06-26T12:35:29.047Z,49.5
2019-06-26T12:40:31.363Z,45.700001
2019-06-26T12:45:35.009Z,44.200001
2019-06-26T13:07:51.483Z,49.099998
2019-06-26T13:12:56.998Z,40.099998
2019-06-26T13:17:54.976Z,47.700001
2019-06-26T13:22:57.203Z,44.599998
2019-06-26T14:51:21.227Z,42.299999
